TimeCST,TemperatureF,Dew PointF,Humidity,Sea Level PressureIn,VisibilityMPH,Wind Direction,Wind SpeedMPH,Gust SpeedMPH,PrecipitationIn,Events,Conditions,WindDirDegrees,DateUTC
12:15 AM,55.4,44.6,67,29.68,10.0,SSW,17.3,21.9,N/A,,Clear,200,2013-01-12 06:15:00
12:35 AM,53.6,44.6,72,29.68,10.0,SSW,16.1,-,N/A,,Clear,200,2013-01-12 06:35:00
12:55 AM,53.6,44.6,72,29.69,10.0,SSW,13.8,19.6,N/A,,Clear,200,2013-01-12 06:55:00
1:15 AM,53.6,44.6,72,29.69,10.0,SSW,11.5,-,N/A,,Clear,200,2013-01-12 07:15:00
1:35 AM,53.6,44.6,72,29.70,10.0,SSW,11.5,-,N/A,,Clear,200,2013-01-12 07:35:00
1:55 AM,53.6,44.6,72,29.71,10.0,South,15.0,-,N/A,,Clear,190,2013-01-12 07:55:00
2:15 AM,53.6,44.6,72,29.73,10.0,SSW,13.8,20.7,N/A,,Clear,200,2013-01-12 08:15:00
2:35 AM,53.6,44.6,72,29.73,10.0,SSW,13.8,-,N/A,,Clear,200,2013-01-12 08:35:00
2:55 AM,53.6,42.8,67,29.74,10.0,SSW,10.4,-,N/A,,Clear,210,2013-01-12 08:55:00
3:15 AM,51.8,42.8,71,29.75,10.0,SW,9.2,-,N/A,,Clear,220,2013-01-12 09:15:00
3:35 AM,51.8,42.8,71,29.76,10.0,SW,9.2,-,N/A,,Clear,220,2013-01-12 09:35:00
3:55 AM,51.8,42.8,71,29.77,10.0,SW,10.4,-,N/A,,Clear,230,2013-01-12 09:55:00
4:15 AM,51.8,42.8,71,29.77,10.0,WSW,13.8,19.6,N/A,,Clear,250,2013-01-12 10:15:00
4:35 AM,53.6,37.4,54,29.79,10.0,WSW,17.3,-,N/A,,Clear,250,2013-01-12 10:35:00
4:55 AM,51.8,33.8,50,29.81,7.0,West,20.7,26.5,N/A,,Clear,270,2013-01-12 10:55:00
5:15 AM,46.4,35.6,66,29.83,7.0,WNW,20.7,31.1,N/A,,Clear,290,2013-01-12 11:15:00
5:35 AM,44.6,35.6,71,29.85,7.0,West,16.1,23.0,N/A,,Clear,280,2013-01-12 11:35:00
5:55 AM,42.8,32.0,66,29.87,10.0,West,20.7,28.8,N/A,,Clear,280,2013-01-12 11:55:00
6:15 AM,39.2,30.2,70,29.89,10.0,WNW,15.0,19.6,N/A,,Clear,290,2013-01-12 12:15:00
6:35 AM,39.2,30.2,70,29.90,10.0,West,17.3,-,N/A,,Clear,280,2013-01-12 12:35:00
6:55 AM,37.4,28.4,70,29.93,10.0,WNW,15.0,23.0,N/A,,Clear,290,2013-01-12 12:55:00
7:15 AM,37.4,24.8,60,29.94,10.0,WNW,13.8,-,N/A,,Clear,290,2013-01-12 13:15:00
7:35 AM,35.6,24.8,65,29.94,10.0,West,15.0,-,N/A,,Clear,280,2013-01-12 13:35:00
7:55 AM,33.8,24.8,70,29.95,10.0,WNW,9.2,12.7,N/A,,Clear,290,2013-01-12 13:55:00
8:15 AM,33.8,23.0,65,29.97,10.0,WNW,10.4,-,N/A,,Clear,290,2013-01-12 14:15:00
8:35 AM,33.8,23.0,65,29.99,10.0,West,12.7,16.1,N/A,,Clear,280,2013-01-12 14:35:00
8:55 AM,33.8,23.0,65,30.00,10.0,West,8.1,-,N/A,,Clear,270,2013-01-12 14:55:00
9:15 AM,33.8,21.2,60,30.01,10.0,WNW,8.1,-,N/A,,Clear,300,2013-01-12 15:15:00
9:35 AM,33.8,21.2,60,30.00,10.0,NW,13.8,-,N/A,,Clear,310,2013-01-12 15:35:00
9:55 AM,33.8,21.2,60,30.01,10.0,NW,11.5,-,N/A,,Clear,310,2013-01-12 15:55:00
10:15 AM,33.8,21.2,60,30.01,10.0,NW,8.1,-,N/A,,Clear,310,2013-01-12 16:15:00
10:35 AM,35.6,21.2,56,30.05,10.0,WNW,4.6,-,N/A,,Clear,300,2013-01-12 16:35:00
10:55 AM,35.6,21.2,56,30.04,10.0,WNW,4.6,-,N/A,,Clear,290,2013-01-12 16:55:00
11:15 AM,35.6,21.2,56,30.03,10.0,WNW,6.9,-,N/A,,Scattered Clouds,290,2013-01-12 17:15:00
11:55 AM,35.6,21.2,56,30.01,10.0,West,9.2,-,N/A,,Mostly Cloudy,280,2013-01-12 17:55:00
12:15 PM,35.6,21.2,56,30.00,10.0,NW,8.1,-,N/A,,Mostly Cloudy,310,2013-01-12 18:15:00
12:35 PM,33.8,19.4,56,29.99,10.0,WNW,9.2,-,N/A,,Overcast,290,2013-01-12 18:35:00
12:55 PM,33.8,17.6,52,29.99,10.0,NW,8.1,-,N/A,,Overcast,310,2013-01-12 18:55:00
1:35 PM,33.8,17.6,52,29.98,10.0,NW,9.2,-,N/A,,Overcast,320,2013-01-12 19:35:00
1:55 PM,33.8,17.6,52,30.01,10.0,NNW,8.1,-,N/A,,Overcast,340,2013-01-12 19:55:00
2:15 PM,32.0,19.4,60,30.02,10.0,NW,4.6,-,N/A,,Overcast,320,2013-01-12 20:15:00
2:35 PM,32.0,21.2,64,30.03,10.0,NNW,5.8,-,N/A,,Mostly Cloudy,330,2013-01-12 20:35:00
2:55 PM,32.0,21.2,64,30.03,10.0,NW,5.8,-,N/A,,Overcast,320,2013-01-12 20:55:00
3:15 PM,32.0,21.2,64,30.02,10.0,North,8.1,-,N/A,,Overcast,350,2013-01-12 21:15:00
3:35 PM,30.2,19.4,64,30.02,10.0,North,6.9,-,N/A,,Overcast,350,2013-01-12 21:35:00
3:55 PM,30.2,19.4,64,30.01,10.0,North,6.9,-,N/A,,Overcast,350,2013-01-12 21:55:00
4:15 PM,30.2,19.4,64,29.97,10.0,North,8.1,-,N/A,,Overcast,360,2013-01-12 22:15:00
4:35 PM,30.2,19.4,64,29.98,10.0,North,8.1,-,N/A,,Overcast,350,2013-01-12 22:35:00
4:55 PM,30.2,17.6,60,29.97,10.0,North,9.2,-,N/A,,Overcast,350,2013-01-12 22:55:00
5:15 PM,30.2,17.6,60,29.96,10.0,NNW,10.4,-,N/A,,Overcast,340,2013-01-12 23:15:00
5:35 PM,30.2,19.4,64,29.99,10.0,NNW,9.2,-,N/A,,Overcast,330,2013-01-12 23:35:00
5:55 PM,30.2,19.4,64,30.01,10.0,NNW,4.6,-,N/A,,Overcast,340,2013-01-12 23:55:00
6:15 PM,30.2,19.4,64,30.04,10.0,NNW,9.2,-,N/A,,Overcast,330,2013-01-13 00:15:00
6:35 PM,28.4,19.4,69,30.04,3.0,NNW,10.4,16.1,N/A,Snow,Light Snow,330,2013-01-13 00:35:00
7:15 PM,28.4,19.4,69,30.03,4.0,NNW,9.2,-,N/A,Snow,Light Snow,340,2013-01-13 01:15:00
7:35 PM,28.4,21.2,74,30.01,2.0,NNW,10.4,17.3,N/A,Snow,Light Snow,340,2013-01-13 01:35:00
7:55 PM,26.6,21.2,80,29.98,2.5,North,12.7,-,N/A,Snow,Light Snow,360,2013-01-13 01:55:00
8:15 PM,26.6,21.2,80,29.95,3.0,North,11.5,-,N/A,Snow,Light Snow,360,2013-01-13 02:15:00
8:35 PM,26.6,21.2,80,29.94,3.0,North,13.8,-,N/A,Snow,Light Snow,360,2013-01-13 02:35:00
8:55 PM,26.6,21.2,80,29.97,5.0,NNW,10.4,19.6,N/A,Snow,Light Snow,340,2013-01-13 02:55:00
9:15 PM,26.6,21.2,80,30.01,5.0,NNW,8.1,17.3,N/A,Snow,Light Snow,330,2013-01-13 03:15:00
9:35 PM,26.6,19.4,74,30.00,2.0,NW,12.7,17.3,N/A,Snow,Light Snow,320,2013-01-13 03:35:00
9:55 PM,24.8,19.4,80,30.00,2.0,NNW,9.2,18.4,N/A,Snow,Light Snow,330,2013-01-13 03:55:00
10:15 PM,24.8,19.4,80,30.01,2.0,NNW,10.4,-,N/A,Snow,Light Snow,330,2013-01-13 04:15:00
10:35 PM,24.8,17.6,74,30.00,1.2,NNW,11.5,18.4,N/A,Snow,Light Snow,330,2013-01-13 04:35:00
10:55 PM,24.8,17.6,74,30.00,5.0,NNW,10.4,16.1,N/A,Snow,Light Snow,340,2013-01-13 04:55:00
11:15 PM,24.8,17.6,74,30.00,1.8,NNW,8.1,-,N/A,Snow,Light Snow,330,2013-01-13 05:15:00
11:35 PM,23.0,17.6,80,29.97,7.0,NNW,11.5,-,N/A,Snow,Light Snow,340,2013-01-13 05:35:00
11:55 PM,23.0,17.6,80,29.96,5.0,NNW,10.4,16.1,N/A,Snow,Light Snow,340,2013-01-13 05:55:00